Data for 04/09/2005

Time Sea-Level Adjusted Pressure Absolute Pressure Temperature Relative Humidity Dew Point   
(mb) (inHg) (mb) (inHg) (C) (F) (%) (C) (F)
00:05 1005 29.68 834 24.63 4.4 39.9 74 0.1 32.2
00:10 1005 29.68 834 24.63 4.4 40 74 0.2 32.3
00:15 1005 29.68 834 24.63 4.5 40.1 74 0.3 32.5
00:20 1005 29.68 834 24.63 4.5 40.2 68 -0.8 30.5
00:25 1005 29.68 834 24.63 4.5 40.2 71 -0.2 31.6
00:30 1005 29.68 834 24.63 4.6 40.2 64 -1.6 29.1
00:35 1005 29.68 834 24.63 4.7 40.4 61 -2.3 27.9
00:40 1005 29.68 834 24.63 4.7 40.5 56 -3.3 26.1
00:45 1005 29.68 835 24.66 4.7 40.4 55 -3.5 25.7
00:50 1006 29.71 835 24.66 4.5 40.1 55 -3.7 25.3
00:55 1006 29.71 835 24.66 4.5 40.1 58 -3.1 26.4
01:00 1006 29.71 835 24.66 4.4 39.9 58 -3.1 26.4
01:05 1006 29.71 835 24.66 4.3 39.8 58 -3.1 26.4
01:10 1006 29.71 835 24.66 4.2 39.6 58 -3.4 26
01:15 1006 29.71 835 24.66 4.2 39.6 58 -3.3 26.1
01:20 1006 29.71 835 24.66 4.1 39.3 59 -3.2 26.2
01:25 1006 29.71 835 24.66 4 39.3 59 -3.2 26.2
01:30 1006 29.71 835 24.66 4.1 39.4 57 -3.7 25.4
01:35 1006 29.71 835 24.66 4.1 39.5 57 -3.6 25.5
01:40 1006 29.71 835 24.66 4.1 39.3 58 -3.5 25.6
01:45 1006 29.71 835 24.66 4 39.2 57 -3.6 25.4
01:50 1006 29.71 835 24.66 3.9 39 58 -3.7 25.4
01:55 1006 29.71 835 24.66 3.8 38.9 59 -3.6 25.6
02:00 1006 29.71 835 24.66 3.8 38.8 58 -3.6 25.4
02:05 1006 29.71 836 24.69 3.7 38.6 60 -3.4 25.9
02:10 1006 29.71 836 24.69 3.7 38.6 61 -3.2 26.2
02:15 1006 29.71 836 24.69 3.5 38.3 67 -2.1 28.1
02:20 1006 29.71 836 24.69 2.6 36.7 80 -0.4 31.2
02:25 1006 29.71 835 24.66 1.6 34.9 88 -0.2 31.7
02:30 1006 29.71 836 24.69 1.4 34.4 88 -0.4 31.3
02:35 1006 29.71 835 24.66 1.3 34.3 89 -0.4 31.3
02:40 1006 29.71 835 24.66 1.2 34.2 88 -0.5 31.1
02:45 1006 29.71 835 24.66 1.3 34.3 86 -0.8 30.6
02:50 1006 29.71 835 24.66 1.3 34.4 85 -0.9 30.5
02:55 1006 29.71 835 24.66 1.3 34.4 83 -1.2 29.8
03:00 1006 29.71 835 24.66 1.5 34.6 82 -1.3 29.6
03:05 1006 29.71 835 24.66 1.6 34.8 81 -1.4 29.5
03:10 1006 29.71 835 24.66 1.6 34.8 81 -1.4 29.6
03:15 1006 29.71 835 24.66 1.5 34.6 81 -1.4 29.4
03:20 1006 29.71 835 24.66 1.3 34.4 81 -1.5 29.3
03:25 1006 29.71 835 24.66 1.3 34.4 81 -1.6 29.2
03:30 1006 29.71 835 24.66 1.4 34.5 80 -1.6 29
03:35 1006 29.71 835 24.66 1.4 34.5 80 -1.7 29
03:40 1006 29.71 835 24.66 1.3 34.4 80 -1.8 28.8
03:45 1006 29.71 835 24.66 1.4 34.5 79 -1.9 28.6
03:50 1006 29.71 835 24.66 1.6 34.8 76 -2.2 28.1
03:55 1006 29.71 835 24.66 1.7 35.1 74 -2.5 27.5
04:00 1006 29.71 835 24.66 1.8 35.3 73 -2.5 27.4
04:05 1006 29.71 835 24.66 1.9 35.5 71 -2.7 27.1
04:10 1006 29.71 835 24.66 2.1 35.7 70 -2.9 26.8
04:15 1006 29.71 835 24.66 2.1 35.7 68 -3.2 26.2
04:20 1006 29.71 835 24.66 2.1 35.9 68 -3.2 26.2
04:25 1006 29.71 835 24.66 2.1 35.7 65 -3.9 25.1
04:30 1006 29.71 835 24.66 2.1 35.8 65 -3.7 25.3
04:35 1006 29.71 835 24.66 2.1 35.8 60 -4.8 23.4
04:40 1006 29.71 835 24.66 2.2 36 57 -5.3 22.4
04:45 1006 29.71 835 24.66 2.2 36 57 -5.4 22.2
04:50 1006 29.71 835 24.66 2.2 36 56 -5.5 22.1
04:55 1006 29.71 835 24.66 2.2 36 56 -5.7 21.8
05:00 1006 29.71 835 24.66 2.2 36 57 -5.5 22.1
05:05 1006 29.71 835 24.66 2.2 35.9 57 -5.5 22
05:10 1006 29.71 835 24.66 2.2 36 58 -5.3 22.4
05:15 1006 29.71 835 24.66 2.1 35.8 64 -4 24.8
05:20 1006 29.71 835 24.66 2 35.6 65 -3.8 25.1
05:25 1006 29.71 835 24.66 2 35.7 68 -3.2 26.2
05:30 1006 29.71 835 24.66 1.9 35.4 70 -3 26.6
05:35 1006 29.71 835 24.66 1.8 35.2 72 -2.8 26.9
05:40 1006 29.71 835 24.66 1.8 35.2 67 -3.6 25.5
05:45 1006 29.71 835 24.66 1.9 35.5 69 -3.2 26.2
05:50 1006 29.71 835 24.66 1.9 35.4 71 -2.9 26.8
05:55 1006 29.71 835 24.66 1.7 35.1 69 -3.3 26
06:00 1006 29.71 835 24.66 1.7 35.1 71 -3 26.7
06:05 1006 29.71 835 24.66 1.6 34.9 71 -3.1 26.5
06:10 1006 29.71 836 24.69 1.6 34.9 72 -3 26.7
06:15 1006 29.71 836 24.69 1.6 34.8 73 -2.8 26.9
06:20 1006 29.71 836 24.69 1.4 34.5 74 -2.7 27.2
06:25 1006 29.71 836 24.69 1.4 34.5 74 -2.7 27.1
06:30 1007 29.74 836 24.69 1.5 34.8 73 -2.8 27
06:35 1007 29.74 836 24.69 1.5 34.7 74 -2.7 27.1
06:40 1007 29.74 836 24.69 1.5 34.7 72 -3 26.7
06:45 1007 29.74 836 24.69 1.6 34.9 71 -3.1 26.4
06:50 1007 29.74 836 24.69 1.6 34.9 71 -3.1 26.4
06:55 1007 29.74 836 24.69 1.6 34.8 71 -3.1 26.4
07:00 1007 29.74 836 24.69 1.5 34.6 71 -3.2 26.2
07:05 1007 29.74 836 24.69 1.4 34.5 71 -3.3 26
07:10 1007 29.74 836 24.69 1.5 34.7 70 -3.4 25.9
07:15 1007 29.74 836 24.69 1.6 34.8 68 -3.6 25.5
07:20 1007 29.74 836 24.69 1.7 35 68 -3.5 25.6
07:25 1007 29.74 836 24.69 1.7 35.1 67 -3.7 25.3
07:30 1007 29.74 836 24.69 1.7 35.1 65 -4.2 24.5
07:35 1007 29.74 836 24.69 1.9 35.4 64 -4.3 24.2
07:40 1007 29.74 836 24.69 1.9 35.4 62 -4.6 23.8
07:45 1007 29.74 836 24.69 2 35.6 61 -4.8 23.3
07:50 1007 29.74 836 24.69 2.1 35.7 60 -4.9 23.2
07:55 1007 29.74 836 24.69 2.1 35.7 60 -4.9 23.1
08:00 1007 29.74 836 24.69 2.1 35.8 60 -4.9 23.2
08:05 1007 29.74 836 24.69 2.1 35.8 59 -5 23
08:10 1007 29.74 836 24.69 2.2 35.9 59 -5 23
08:15 1007 29.74 836 24.69 2.3 36.1 59 -5 23
08:20 1007 29.74 836 24.69 2.3 36.2 57 -5.3 22.5
08:25 1007 29.74 837 24.72 2.3 36.2 56 -5.6 21.9
08:30 1007 29.74 837 24.72 2.3 36.2 56 -5.5 22.1
08:35 1007 29.74 837 24.72 2.4 36.2 57 -5.3 22.4
08:40 1007 29.74 837 24.72 2.5 36.6 54 -5.7 21.7
08:45 1007 29.74 837 24.72 2.6 36.7 52 -6.2 20.8
08:50 1007 29.74 837 24.72 2.7 36.8 52 -6.3 20.6
08:55 1008 29.77 837 24.72 2.7 36.9 52 -6.2 20.8
09:00 1008 29.77 837 24.72 2.9 37.1 51 -6.2 20.8
09:05 1008 29.77 837 24.72 3 37.4 50 -6.4 20.4
09:10 1008 29.77 837 24.72 3 37.3 50 -6.4 20.4
09:15 1008 29.77 837 24.72 3 37.4 50 -6.5 20.3
09:20 1008 29.77 837 24.72 3.1 37.6 49 -6.6 20.2
09:25 1008 29.77 837 24.72 3.1 37.7 49 -6.6 20.1
09:30 1008 29.77 837 24.72 3.3 37.9 48 -6.8 19.8
09:35 1008 29.77 837 24.72 3.4 38.2 47 -6.9 19.6
09:40 1008 29.77 837 24.72 3.4 38.1 47 -6.9 19.7
09:45 1008 29.77 837 24.72 3.5 38.3 45 -7.2 19
09:50 1008 29.77 837 24.72 3.5 38.3 45 -7.2 19
09:55 1008 29.77 837 24.72 3.5 38.4 46 -7.1 19.1
10:00 1008 29.77 837 24.72 3.8 38.8 45 -7.1 19.2
10:05 1008 29.77 837 24.72 3.9 39 45 -7 19.4
10:10 1008 29.77 837 24.72 4.1 39.4 43 -7.4 18.6
10:15 1008 29.77 837 24.72 4 39.3 44 -7.2 19
10:20 1008 29.77 837 24.72 4.2 39.5 42 -7.5 18.5
10:25 1008 29.77 837 24.72 4.3 39.8 42 -7.4 18.6
10:30 1008 29.77 837 24.72 4.5 40.1 41 -7.5 18.4
10:35 1008 29.77 837 24.72 4.5 40.1 41 -7.6 18.4
10:40 1008 29.77 837 24.72 4.5 40.1 41 -7.6 18.3
10:45 1008 29.77 837 24.72 4.3 39.8 41 -7.7 18.1
10:50 1008 29.77 837 24.72 4.4 40 40 -8 17.6
10:55 1008 29.77 837 24.72 4.5 40 40 -7.8 17.9
11:00 1008 29.77 837 24.72 4.8 40.6 40 -7.7 18.1
11:05 1008 29.77 837 24.72 4.7 40.5 40 -7.8 17.9
11:10 1008 29.77 837 24.72 4.6 40.3 40 -7.8 17.9
11:15 1008 29.77 837 24.72 4.6 40.3 40 -7.8 17.9
11:20 1008 29.77 837 24.72 4.9 40.8 40 -7.6 18.3
11:25 1008 29.77 837 24.72 4.8 40.7 40 -7.5 18.5
11:30 1008 29.77 837 24.72 4.8 40.7 39 -8.1 17.4
11:35 1008 29.77 837 24.72 5.4 41.7 37 -8.1 17.3
11:40 1008 29.77 837 24.72 5.4 41.7 35 -8.7 16.3
11:45 1008 29.77 837 24.72 5.4 41.6 35 -8.8 16.1
11:50 1008 29.77 837 24.72 5.6 42.1 36 -8.4 16.8
11:55 1008 29.77 837 24.72 5.7 42.3 34 -8.8 16.2
12:00 1008 29.77 837 24.72 5.7 42.3 35 -8.7 16.4
12:05 1008 29.77 837 24.72 6 42.7 34 -8.8 16.1
12:10 1008 29.77 837 24.72 6 42.8 33 -9.3 15.3
12:15 1008 29.77 837 24.72 6.1 43.1 32 -9.3 15.2
12:20 1008 29.77 837 24.72 6.1 43 32 -9.2 15.4
12:25 1008 29.77 837 24.72 6.3 43.4 33 -9 15.9
12:30 1008 29.77 837 24.72 6.5 43.6 32 -9 15.8
12:35 1008 29.77 838 24.75 6.7 44.1 31 -9.3 15.2
12:40 1008 29.77 837 24.72 6.8 44.2 31 -9.2 15.4
12:45 1008 29.77 838 24.75 6.1 43.1 32 -9.4 15
12:50 1008 29.77 838 24.75 6.5 43.7 32 -9.1 15.7
12:55 1008 29.77 837 24.72 6.6 43.9 32 -8.9 16
13:00 1008 29.77 838 24.75 6.8 44.3 30 -9.4 15
13:05 1008 29.77 838 24.75 6.7 44 31 -9.1 15.7
13:10 1008 29.77 838 24.75 6.9 44.4 31 -9.2 15.5
13:15 1008 29.77 838 24.75 7.2 45 30 -9.4 15.2
13:20 1008 29.77 838 24.75 6.6 44 31 -9.2 15.5
13:25 1008 29.77 838 24.75 6.8 44.3 31 -9 15.9
13:30 1008 29.77 838 24.75 6.8 44.2 31 -9 15.7
13:35 1008 29.77 838 24.75 6.7 44 31 -9.4 15.2
13:40 1008 29.77 838 24.75 6.5 43.7 30 -9.9 14.3
13:45 1008 29.77 838 24.75 6.4 43.5 31 -9.5 14.9
13:50 1008 29.77 838 24.75 6.5 43.7 30 -9.8 14.4
13:55 1009 29.8 838 24.75 6.4 43.5 31 -9.7 14.6
14:00 1009 29.8 838 24.75 6.4 43.5 31 -9.6 14.7
14:05 1009 29.8 838 24.75 6.4 43.5 31 -9.4 15.1
14:10 1009 29.8 838 24.75 6.4 43.5 32 -9.3 15.2
14:15 1009 29.8 838 24.75 6.9 44.4 30 -9.4 15
14:20 1009 29.8 838 24.75 6.6 43.9 30 -9.7 14.6
14:25 1009 29.8 838 24.75 6.6 43.9 31 -9.5 15
14:30 1009 29.8 838 24.75 6.6 43.8 30 -9.9 14.2
14:35 1009 29.8 838 24.75 6.6 43.8 31 -9.5 14.9
14:40 1009 29.8 838 24.75 6.5 43.8 31 -9.4 15.1
14:45 1009 29.8 838 24.75 6.5 43.8 31 -9.5 14.9
14:50 1009 29.8 838 24.75 6.6 43.8 31 -9.3 15.3
14:55 1009 29.8 838 24.75 6.5 43.7 31 -9.5 14.8
15:00 1009 29.8 838 24.75 6.3 43.3 31 -9.5 14.8
15:05 1009 29.8 838 24.75 6.4 43.4 31 -9.5 14.9
15:10 1009 29.8 838 24.75 6.4 43.6 32 -9.3 15.3
15:15 1009 29.8 838 24.75 6.5 43.7 32 -9.2 15.5
15:20 1009 29.8 838 24.75 6.6 43.8 32 -9 15.8
15:25 1009 29.8 838 24.75 6.5 43.7 32 -9 15.8
15:30 1009 29.8 838 24.75 6.5 43.7 32 -8.9 15.9
15:35 1009 29.8 838 24.75 6.4 43.5 32 -9 15.8
15:40 1009 29.8 838 24.75 6.5 43.6 33 -8.8 16.2
15:45 1009 29.8 838 24.75 6.5 43.7 32 -8.9 16.1
15:50 1009 29.8 838 24.75 6.4 43.6 33 -8.8 16.2
15:55 1009 29.8 838 24.75 6.6 43.9 33 -8.7 16.3
16:00 1009 29.8 838 24.75 6.7 44 34 -8.3 17.1
16:05 1009 29.8 838 24.75 6.9 44.4 33 -8.3 17
16:10 1009 29.8 838 24.75 7 44.6 33 -8.2 17.2
16:15 1009 29.8 838 24.75 6.7 44.1 34 -8.2 17.3
16:20 1009 29.8 838 24.75 6.8 44.2 33 -8.2 17.2
16:25 1009 29.8 839 24.78 7 44.5 33 -8.1 17.4
16:30 1009 29.8 839 24.78 7.1 44.7 34 -7.8 18
16:35 1009 29.8 839 24.78 6.9 44.5 34 -7.9 17.8
16:40 1009 29.8 839 24.78 6.9 44.5 34 -7.7 18.1
16:45 1010 29.83 839 24.78 7 44.5 34 -7.8 18
16:50 1010 29.83 839 24.78 6.8 44.2 35 -7.5 18.5
16:55 1010 29.83 839 24.78 6.6 43.9 35 -7.8 17.9
17:00 1010 29.83 839 24.78 6.5 43.7 38 -6.8 19.7
17:05 1010 29.83 839 24.78 6.3 43.3 38 -6.9 19.5
17:10 1010 29.83 839 24.78 6.5 43.7 38 -6.8 19.7
17:15 1010 29.83 839 24.78 6.6 43.8 38 -6.7 20
17:20 1010 29.83 839 24.78 6.4 43.5 38 -6.7 19.9
17:25 1010 29.83 839 24.78 6.3 43.3 40 -6.3 20.6
17:30 1010 29.83 839 24.78 6.4 43.6 40 -6.3 20.7
17:35 1010 29.83 839 24.78 6.3 43.3 41 -6.2 20.9
17:40 1010 29.83 839 24.78 6.2 43.2 41 -6.1 21
17:45 1010 29.83 839 24.78 5.9 42.7 42 -6 21.1
17:50 1010 29.83 840 24.81 5.8 42.4 43 -5.9 21.3
17:55 1010 29.83 840 24.81 6 42.8 41 -6.2 20.8
18:00 1010 29.83 840 24.81 6 42.8 41 -6.3 20.6
18:05 1010 29.83 840 24.81 6.1 43 40 -6.5 20.3
18:10 1011 29.85 840 24.81 6.2 43.1 40 -6.4 20.4
18:15 1011 29.85 840 24.81 5.8 42.5 45 -5.3 22.5
18:20 1011 29.85 840 24.81 5.3 41.5 46 -5.5 22.2
18:25 1011 29.85 840 24.81 5.2 41.4 45 -5.9 21.4
18:30 1011 29.85 840 24.81 5.6 42.2 43 -5.9 21.4
18:35 1011 29.85 840 24.81 5.4 41.8 45 -5.6 21.9
18:40 1011 29.85 840 24.81 5.4 41.7 45 -5.7 21.7
18:45 1011 29.85 840 24.81 5.6 42 44 -5.9 21.4
18:50 1011 29.85 840 24.81 5.6 42.2 44 -5.8 21.6
18:55 1011 29.85 840 24.81 5.9 42.7 43 -5.8 21.5
19:00 1011 29.85 840 24.81 6.1 42.9 42 -5.8 21.6
19:05 1011 29.85 840 24.81 6.1 43.1 42 -5.9 21.4
19:10 1011 29.85 840 24.81 6.1 43 42 -5.7 21.8
19:15 1011 29.85 840 24.81 6.1 42.9 42 -5.8 21.6
19:20 1011 29.85 841 24.83 5.9 42.7 43 -5.7 21.7
19:25 1011 29.85 841 24.83 5.9 42.6 43 -5.8 21.5
19:30 1011 29.85 841 24.83 5.7 42.3 44 -5.6 21.9
19:35 1011 29.85 841 24.83 5.7 42.3 44 -5.6 21.9
19:40 1011 29.85 841 24.83 5.9 42.5 44 -5.5 22
19:45 1011 29.85 841 24.83 5.9 42.6 43 -5.9 21.4
19:50 1012 29.88 841 24.83 6 42.7 42 -6.1 21
19:55 1012 29.88 841 24.83 6 42.9 43 -5.8 21.6
20:00 1012 29.88 841 24.83 6 42.8 42 -6 21.1
20:05 1012 29.88 841 24.83 6 42.8 42 -6.1 21.1
20:10 1012 29.88 841 24.83 6 42.7 41 -6.3 20.7
20:15 1012 29.88 841 24.83 5.9 42.6 40 -6.7 19.9
20:20 1012 29.88 841 24.83 5.9 42.7 40 -6.5 20.3
20:25 1012 29.88 841 24.83 5.9 42.7 39 -7 19.4
20:30 1012 29.88 841 24.83 5.9 42.7 37 -7.5 18.5
20:35 1012 29.88 841 24.83 5.8 42.5 40 -6.8 19.7
20:40 1012 29.88 841 24.83 5.8 42.4 39 -7.2 19
20:45 1012 29.88 841 24.83 5.7 42.2 41 -6.7 20
20:50 1012 29.88 842 24.86 5.4 41.8 41 -6.9 19.6
20:55 1012 29.88 842 24.86 5.4 41.7 41 -6.7 19.9
21:00 1012 29.88 842 24.86 5.4 41.7 40 -7.2 19
21:05 1012 29.88 842 24.86 5.4 41.7 40 -7.1 19.3
21:10 1013 29.91 842 24.86 5.3 41.5 41 -6.9 19.6
21:15 1013 29.91 842 24.86 5.1 41.2 41 -6.9 19.5
21:20 1013 29.91 842 24.86 5 41 42 -6.9 19.7
21:25 1013 29.91 842 24.86 4.9 40.8 43 -6.7 20
21:30 1013 29.91 842 24.86 4.8 40.7 44 -6.5 20.2
21:35 1013 29.91 842 24.86 4.8 40.7 44 -6.4 20.6
21:40 1013 29.91 842 24.86 4.8 40.6 44 -6.4 20.5
21:45 1013 29.91 842 24.86 4.9 40.7 43 -6.6 20.1
21:50 1013 29.91 842 24.86 4.9 40.8 44 -6.4 20.5
21:55 1013 29.91 842 24.86 4.8 40.6 44 -6.4 20.5
22:00 1013 29.91 842 24.86 4.8 40.6 45 -6.2 20.9
22:05 1013 29.91 843 24.89 4.7 40.5 45 -6.2 20.8
22:10 1013 29.91 843 24.89 4.6 40.4 45 -6.3 20.6
22:15 1014 29.94 843 24.89 4.6 40.2 45 -6.2 20.8
22:20 1014 29.94 843 24.89 4.5 40.1 46 -6.2 20.9
22:25 1014 29.94 843 24.89 4.5 40.1 46 -6 21.2
22:30 1014 29.94 843 24.89 4.4 39.9 47 -6 21.2
22:35 1014 29.94 843 24.89 4.4 40 47 -5.9 21.3
22:40 1014 29.94 843 24.89 4.4 39.9 47 -5.8 21.5
22:45 1014 29.94 843 24.89 4.3 39.8 48 -5.7 21.7
22:50 1014 29.94 843 24.89 4.3 39.7 48 -5.8 21.5
22:55 1014 29.94 843 24.89 4.2 39.5 48 -5.9 21.3
23:00 1014 29.94 843 24.89 4.1 39.4 48 -5.9 21.4
23:05 1014 29.94 843 24.89 4.1 39.3 48 -5.9 21.3
23:10 1014 29.94 843 24.89 4 39.2 49 -5.8 21.6
23:15 1014 29.94 843 24.89 4 39.2 50 -5.5 22
23:20 1014 29.94 843 24.89 3.9 39 50 -5.5 22.1
23:25 1014 29.94 843 24.89 3.8 38.8 52 -5.3 22.5
23:30 1014 29.94 843 24.89 3.7 38.7 53 -4.9 23.1
23:35 1014 29.94 843 24.89 3.5 38.4 54 -4.9 23.2
23:40 1014 29.94 844 24.92 3.5 38.3 56 -4.6 23.8
23:45 1014 29.94 844 24.92 3.4 38.1 56 -4.5 23.9
23:50 1014 29.94 844 24.92 3.4 38.1 57 -4.4 24.1
23:55 1014 29.94 844 24.92 3.4 38.1 58 -4.2 24.5
24:00 1014 29.94 844 24.92 3.3 38 58 -4.1 24.6